IRA408 OIII-OITL
Flight info
| Callsign | IRA408 |
|---|---|
| Flight time | N/A |
| Altitude | 30000 |
| Route | PAROT W161 RST A416 GIVTA |
| Aircraft | B735/M-SDFHIW/S |
Departure
| Time | N/A |
|---|---|
| Airport | Mehrabad International Airport (OIII) |
Arrival
| Time | 2026-05-07 20:33 |
|---|---|
| Airport | Ardabil Airport (OITL) |
| Time | Latitude | Longitude | Altitude | Speed | Heading |
|---|---|---|---|---|---|
| 2026-05-07 20:27 | 38.01773 | 48.77458 | 13939 ft | 325 kts | 308° |
| 2026-05-07 20:27 | 38.03356 | 48.75415 | 13164 ft | 325 kts | 310° |
| 2026-05-07 20:27 | 38.04949 | 48.73400 | 12390 ft | 323 kts | 311° |
| 2026-05-07 20:28 | 38.06540 | 48.71393 | 11659 ft | 321 kts | 312° |
| 2026-05-07 20:28 | 38.08112 | 48.69394 | 10978 ft | 318 kts | 313° |
| 2026-05-07 20:28 | 38.09661 | 48.67420 | 10338 ft | 312 kts | 314° |
| 2026-05-07 20:28 | 38.11159 | 48.65496 | 9724 ft | 308 kts | 313° |
| 2026-05-07 20:29 | 38.12677 | 48.63543 | 9063 ft | 305 kts | 314° |
| 2026-05-07 20:29 | 38.14152 | 48.61645 | 8453 ft | 300 kts | 314° |
| 2026-05-07 20:29 | 38.15607 | 48.59780 | 7852 ft | 295 kts | 314° |
| 2026-05-07 20:29 | 38.17043 | 48.57942 | 7331 ft | 290 kts | 315° |
| 2026-05-07 20:30 | 38.18428 | 48.56165 | 7034 ft | 276 kts | 316° |
| 2026-05-07 20:30 | 38.19746 | 48.54475 | 6830 ft | 261 kts | 316° |
| 2026-05-07 20:30 | 38.20992 | 48.52920 | 6751 ft | 242 kts | 320° |
| 2026-05-07 20:30 | 38.22259 | 48.51647 | 6712 ft | 222 kts | 327° |
| 2026-05-07 20:31 | 38.23497 | 48.50631 | 6743 ft | 202 kts | 330° |
| 2026-05-07 20:31 | 38.24692 | 48.49725 | 6450 ft | 200 kts | 331° |
| 2026-05-07 20:31 | 38.25845 | 48.48723 | 6000 ft | 202 kts | 317° |
| 2026-05-07 20:31 | 38.26715 | 48.47343 | 5634 ft | 192 kts | 304° |
| 2026-05-07 20:32 | 38.27505 | 48.46110 | 5569 ft | 168 kts | 320° |
| 2026-05-07 20:32 | 38.28430 | 48.45299 | 5494 ft | 161 kts | 332° |
| 2026-05-07 20:32 | 38.29400 | 48.44554 | 5043 ft | 157 kts | 330° |
| 2026-05-07 20:32 | 38.30367 | 48.43917 | 4549 ft | 156 kts | 336° |
| 2026-05-07 20:33 | 38.31308 | 48.43308 | 4345 ft | 154 kts | 330° |
| 2026-05-07 20:33 | 38.32163 | 48.42699 | 4322 ft | 105 kts | 331° |
| 2026-05-07 20:33 | 38.32561 | 48.42413 | 4318 ft | 26 kts | 329° |
| 2026-05-07 20:33 | 38.32694 | 48.42316 | 4317 ft | 19 kts | 326° |
| 2026-05-07 20:34 | 38.32772 | 48.42239 | 4317 ft | 5 kts | 300° |
| 2026-05-07 20:34 | 38.32772 | 48.42221 | 4316 ft | 4 kts | 257° |
| 2026-05-07 20:34 | 38.32764 | 48.42176 | 4317 ft | 6 kts | 256° |
| 2026-05-07 20:34 | 38.32749 | 48.42145 | 4315 ft | 6 kts | 234° |
| 2026-05-07 20:35 | 38.32719 | 48.42092 | 4315 ft | 8 kts | 231° |
| 2026-05-07 20:35 | 38.32695 | 48.42066 | 4314 ft | 1 kts | 197° |
| 2026-05-07 20:35 | 38.32652 | 48.42054 | 4314 ft | 9 kts | 204° |
| 2026-05-07 20:35 | 38.32614 | 48.42010 | 4313 ft | 0 kts | 229° |
| 2026-05-07 20:36 | 38.32607 | 48.41999 | 4313 ft | 0 kts | 228° |